EDT,Max TemperatureF,Mean TemperatureF,Min TemperatureF,Max Dew PointF,MeanDew PointF,Min DewpointF,Max Humidity, Mean Humidity, Min Humidity, Max Sea Level PressureIn, Mean Sea Level PressureIn, Min Sea Level PressureIn, Max VisibilityMiles, Mean VisibilityMiles, Min VisibilityMiles, Max Wind SpeedMPH, Mean Wind SpeedMPH, Max Gust SpeedMPH,PrecipitationIn, CloudCover, Events, WindDirDegrees
2013-3-1,30,28,26,26,21,19,83,76,70,30.11,30.05,29.96,10,10,10,17,10,22,0.00,8,,355
2013-3-2,28,26,24,21,19,14,79,72,61,30.08,30.07,30.05,10,10,7,14,8,20,0.00,8,Snow,339
2013-3-3,29,24,20,18,15,12,76,65,48,30.06,30.04,30.00,10,10,5,15,8,20,0.00,5,Snow,302
2013-3-4,36,26,17,15,13,9,82,59,34,30.15,30.11,30.05,10,10,10,9,4,,0.00,0,,318
2013-3-5,36,29,22,24,21,15,84,70,56,30.15,30.00,29.86,10,10,10,16,6,23,0.00,2,,61
2013-3-6,41,34,28,30,27,23,85,73,58,30.22,30.07,29.87,10,10,10,15,8,22,0.00,4,,25
2013-3-7,36,33,30,31,27,19,86,75,58,30.41,30.31,30.21,10,10,5,12,4,16,0.00,8,Snow,324
2013-3-8,46,36,25,29,23,18,88,61,39,30.50,30.45,30.41,10,10,7,8,2,,0.00,0,,2
2013-3-9,45,36,28,31,28,25,92,73,47,30.44,30.29,30.08,10,8,3,10,2,16,0.00,2,Rain,135
2013-3-10,63,49,35,42,35,31,87,57,35,30.07,29.95,29.82,10,10,10,16,3,22,0.00,3,,189
2013-3-11,56,48,39,47,42,32,92,74,48,29.84,29.68,29.50,10,9,3,21,10,33,0.00,8,Rain,195
2013-3-12,39,36,32,32,29,25,89,76,64,29.93,29.83,29.70,10,9,2,17,11,23,0.00,7,Snow,242
2013-3-13,33,30,27,29,19,11,90,63,41,30.18,30.00,29.86,10,9,2,24,10,32,0.00,5,Snow,279
2013-3-14,41,32,23,18,13,9,66,47,27,30.26,30.19,30.09,10,10,10,14,8,21,0.00,0,,285
2013-3-15,40,36,32,34,27,16,94,72,46,30.08,29.93,29.87,10,8,2,14,7,22,0.00,7,Rain-Snow,265
2013-3-16,33,30,28,29,25,19,92,81,64,30.05,29.89,29.80,10,6,1,13,8,18,0.00,8,Snow,30
2013-3-17,32,28,23,23,15,9,73,58,44,30.28,30.21,30.04,10,10,10,15,8,21,0.00,3,,29
2013-3-18,36,30,23,34,25,14,95,81,66,30.22,29.85,29.57,10,7,2,20,9,32,0.00,5,Rain-Snow,90
2013-3-19,36,30,24,32,19,13,90,68,54,29.93,29.78,29.62,10,8,2,22,14,34,0.00,8,Snow,252
2013-3-20,30,25,20,17,12,8,66,56,42,29.94,29.92,29.89,10,10,7,17,10,24,0.00,3,Snow,267
2013-3-21,32,25,18,24,17,9,80,69,56,29.93,29.88,29.85,10,9,3,20,10,28,0.00,7,Snow,277
2013-3-22,39,33,27,21,18,15,67,56,41,30.03,29.97,29.92,10,10,10,16,10,23,0.00,6,,293
2013-3-23,40,34,28,23,21,20,77,61,44,30.11,30.07,30.02,10,10,10,10,5,,0.00,4,,342
2013-3-24,38,32,26,27,23,16,84,70,43,30.07,29.89,29.66,10,10,10,18,6,28,0.00,4,,49
2013-3-25,40,36,32,27,24,22,75,63,51,29.90,29.70,29.59,10,10,3,20,13,30,0.00,8,Snow,22
2013-3-26,45,40,34,28,26,22,73,62,41,30.11,30.02,29.91,10,10,10,16,9,24,0.00,8,,310
2013-3-27,48,40,32,28,22,19,70,51,32,30.20,30.14,30.11,10,10,10,18,11,28,0.00,6,,295
2013-3-28,51,42,34,27,24,21,64,49,34,30.27,30.24,30.20,10,10,10,13,9,20,0.00,6,,304
2013-3-29,53,42,32,24,21,18,64,43,26,30.29,30.26,30.20,10,10,10,10,6,,0.00,1,,305
2013-3-30,55,44,33,28,22,14,64,43,20,30.23,30.13,29.95,10,10,10,14,4,21,0.00,0,,217
2013-3-31,58,48,38,42,33,28,84,61,35,29.95,29.74,29.63,10,9,5,18,5,25,0.00,5,Rain,248